Flight Track Log - Related Links

Times and Time Zones

All times are in EDT time to prevent confusion due to time zone crossing. See the UCA597 flight status page for this flight to view local times or setup timezone preferences in your user account.

Time Position Orientation Groundspeed Altitude Reporting Facility
EDT Latitude Longitude Course Direction KTS MPH feet Rate Location/Type
Mon 05:49:35 PM 38.9833 -77.4667 345° North 159 183 2,300  Level Potomac TRACON
Mon 05:50:35 PM 39.0333 -77.4833 345° North 171 197 4,000 1,650 Climbing Potomac TRACON
Mon 05:51:35 PM 39.0667 -77.5167 322° Northwest 165 190 5,600 1,448 Climbing Potomac TRACON
Mon 05:53:58 PM 39.1792 -77.5247 357° North 167 192 8,900 1,324 Climbing Washington Center
Mon 05:54:59 PM 39.2253 -77.5153 North 162 186 10,100 1,091 Climbing Washington Center
Mon 05:55:59 PM 39.2775 -77.5058 North 167 192 11,100 446 Climbing Washington Center
Mon 05:57:00 PM 39.3339 -77.4994 North 185 213 11,000 -50 Descending Washington Center
Mon 05:57:58 PM 39.3836 -77.5194 343° North 192 221 11,000 -303 Level Washington Center
Mon 05:58:59 PM 39.3594 -77.5939 247° West 143 165 10,400 -1,140 Descending Washington Center
Mon 05:59:59 PM 39.2961 -77.6514 215° Southwest 203 234 8,700 -702 Descending Washington Center
Mon 06:01:00 PM 39.2572 -77.6259 153° Southeast  Level FlightAware Approximate
Mon 06:02:24 PM 39.1333 -77.6833 153° Southeast 268 308 8,000  Level Potomac TRACON
Mon 06:03:24 PM 39.0500 -77.6667 171° South 275 316 7,000 -600 Descending Potomac TRACON
Mon 06:04:24 PM 38.9833 -77.6500 169° South 245 282 6,800 -500 Descending Potomac TRACON
Mon 06:05:24 PM 38.9167 -77.6167 159° South 251 289 6,000 -400 Descending Potomac TRACON
Mon 06:06:24 PM 38.8500 -77.5833 159° South 256 295 6,000 -600 Level Potomac TRACON
Mon 06:07:24 PM 38.7833 -77.5833 180° South 237 273 4,800 -1,250 Descending Potomac TRACON
Mon 06:08:24 PM 38.7167 -77.5667 169° South 247 284 3,500 -893 Descending Potomac TRACON
Mon 06:09:25 PM 38.7167 -77.5000 90° East 196 226 3,000 -248 Descending Potomac TRACON
Mon 06:10:25 PM 38.7667 -77.4667 27° Northeast 174 200 3,000 -50 Level Potomac TRACON
Mon 06:11:25 PM 38.8000 -77.4667 360° North 150 173 2,900 -500 Descending Potomac TRACON
Mon 06:12:25 PM 38.8500 -77.4667 360° North 165 190 2,000 -800 Descending Potomac TRACON
Mon 06:13:25 PM 38.8833 -77.4667 360° North 132 152 1,300 -700 Descending Potomac TRACON
Mon 06:14:25 PM 38.9167 -77.4667 360° North 132 152 600 -700 Descending Potomac TRACON
Mon 06:16:00 PM 38.9333 -77.4500 10° North  Level FlightAware Approximate
Mon 06:23:00 PM 39.2658 -77.3075 10° North  Level Estimated
Mon 06:24:00 PM 39.3133 -77.2870 10° North  Level Estimated
Mon 06:25:00 PM 39.3608 -77.2665 10° North  Level Estimated
Mon 06:26:00 PM 39.4082 -77.2460 10° North  Level Estimated
Mon 06:27:00 PM 39.4557 -77.2254 10° North  Level Estimated
Mon 06:28:00 PM 39.5032 -77.2048 10° North  Level Estimated
Mon 06:29:00 PM 39.5507 -77.1842 10° North  Level Estimated
Mon 06:30:00 PM 39.5981 -77.1636 10° North  Level Estimated
Mon 06:31:00 PM 39.6456 -77.1429 10° North  Level Estimated
Mon 06:32:00 PM 39.6930 -77.1222 10° North  Level Estimated
Mon 06:33:00 PM 39.7405 -77.1015 10° North  Level Estimated
Mon 06:34:00 PM 39.7879 -77.0807 10° North  Level Estimated
Mon 06:35:00 PM 39.8354 -77.0600 10° North  Level Estimated
Mon 06:36:00 PM 39.8828 -77.0392 10° North  Level Estimated
Mon 06:37:00 PM 39.9302 -77.0183 10° North  Level Estimated
Mon 06:38:00 PM 39.9777 -76.9975 10° North  Level Estimated
Mon 06:39:00 PM 40.0251 -76.9765 10° North  Level Estimated
Mon 06:40:00 PM 40.0725 -76.9556 10° North  Level Estimated
Mon 06:41:00 PM 40.1199 -76.9347 10° North  Level Estimated
Mon 06:42:00 PM 40.1674 -76.9137 10° North  Level Estimated
Mon 06:43:00 PM 40.2148 -76.8927 10° North  Level Estimated
Mon 06:44:00 PM 40.2622 -76.8716 10° North  Level Estimated
Mon 06:45:00 PM 40.3096 -76.8506 10° North  Level Estimated
Mon 06:46:00 PM 40.3570 -76.8295 10° North  Level Estimated
Mon 06:47:00 PM 40.4044 -76.8083 10° North  Level Estimated
Mon 06:48:00 PM 40.4518 -76.7872 10° North  Level Estimated
Mon 06:49:00 PM 40.4992 -76.7660 10° North  Level Estimated
Mon 06:50:00 PM 40.5466 -76.7448 10° North  Level Estimated
Mon 06:51:00 PM 40.5939 -76.7235 10° North  Level Estimated
Mon 06:52:00 PM 40.6413 -76.7022 10° North  Level Estimated
Mon 06:53:00 PM 40.6887 -76.6809 10° North  Level Estimated
Mon 06:54:00 PM 40.7361 -76.6596 10° North  Level Estimated
Mon 06:55:00 PM 40.7834 -76.6382 10° North  Level Estimated
Mon 06:56:00 PM 40.8308 -76.6168 10° North  Level Estimated
Mon 06:57:00 PM 40.8782 -76.5954 10° North  Level Estimated
Mon 06:58:00 PM 40.9255 -76.5739 10° North  Level Estimated
Mon 06:59:00 PM 40.9729 -76.5524 10° North  Level Estimated
Mon 07:00:00 PM 41.0202 -76.5309 10° North  Level Estimated
Mon 07:01:00 PM 41.0676 -76.5093 10° North  Level Estimated
Mon 07:02:00 PM 41.1149 -76.4877 10° North  Level Estimated
Mon 07:03:00 PM 41.1622 -76.4661 10° North  Level Estimated
Mon 07:04:00 PM 41.2095 -76.4445 10° North  Level Estimated
Mon 07:05:00 PM 41.2569 -76.4228 10° North  Level Estimated
Mon 07:06:00 PM 41.3042 -76.4011 10° North  Level Estimated
Mon 07:07:00 PM 41.3515 -76.3793 10° North  Level Estimated
Mon 07:08:00 PM 41.3988 -76.3576 10° North  Level Estimated
Mon 07:09:00 PM 41.4461 -76.3357 10° North  Level Estimated
Mon 07:10:00 PM 41.4935 -76.3139 10° North  Level Estimated
Mon 07:11:00 PM 41.5407 -76.2920 10° North  Level Estimated
Mon 07:12:00 PM 41.5881 -76.2701 10° North  Level Estimated
Mon 07:13:00 PM 41.6353 -76.2482 10° North  Level Estimated
Mon 07:14:00 PM 41.6826 -76.2262 10° North  Level Estimated
Mon 07:15:00 PM 41.7299 -76.2042 10° North  Level Estimated
Mon 07:16:00 PM 41.7772 -76.1822 10° North  Level Estimated
Mon 07:17:00 PM 41.8245 -76.1601 10° North  Level Estimated
Mon 07:18:00 PM 41.8717 -76.1380 10° North  Level Estimated
Mon 07:19:00 PM 41.9190 -76.1159 10° North  Level Estimated
Mon 07:20:00 PM 41.9663 -76.0937 10° North  Level Estimated

Login

Don't have an account? Register now (free) for customized features, flight alerts, and more!